CBAPRS
Automatic Packet Reporting System for everyone...
Symbol
PositionLatitude: 40.3908333333°
Longitude: -3.67083333333°
Speed0km/h
Course
AltitudeN/A
CommentCH 40 - 27.405 FM Mhz | https://cb27.ure.es/
StatusRadio enlace LRCB | www.LaRadioCB.es
PathURE-CB>APWW10 via ,TCPIP*,qAC,EIFEL-CB
Last heardWed, 26 Jun 2019 03:01:16 +0000

Time is in UTC

  • Mon, 1 Jul 2019 23:02:00 +0000: URE-CB>APWW10,,TCPIP*,qAC,EIFEL-CB:>312302zRadio enlace LRCB | www.LaRadioCB.es
  • Mon, 1 Jul 2019 22:01:00 +0000: URE-CB>APWW10,,TCPIP*,qAC,EIFEL-CB:>312201zRadio enlace LRCB | www.LaRadioCB.es
  • Wed, 26 Jun 2019 22:48:43 +0000: URE-CB>APWW10,,TCPIP*,qAC,EIFEL-CB:@234843h4023.45N/00340.25WyCH 40 - 27.405 FM Mhz | https://cb27.ure.es/
  • Wed, 26 Jun 2019 22:18:42 +0000: URE-CB>APWW10,,TCPIP*,qAC,EIFEL-CB:@231842h4023.45N/00340.25WyCH 40 - 27.405 FM Mhz | https://cb27.ure.es/
  • Wed, 26 Jun 2019 21:48:41 +0000: URE-CB>APWW10,,TCPIP*,qAC,EIFEL-CB:@224841h4023.45N/00340.25WyCH 40 - 27.405 FM Mhz | https://cb27.ure.es/
  • Wed, 26 Jun 2019 21:18:40 +0000: URE-CB>APWW10,,TCPIP*,qAC,EIFEL-CB:@221840h4023.45N/00340.25WyCH 40 - 27.405 FM Mhz | https://cb27.ure.es/
  • Wed, 26 Jun 2019 04:02:00 +0000: URE-CB>APWW10,,TCPIP*,qAC,EIFEL-CB:>260402zRadio enlace LRCB | www.LaRadioCB.es
  • Wed, 26 Jun 2019 03:01:16 +0000: URE-CB>APWW10,,TCPIP*,qAC,EIFEL-CB:@040116h4023.45N/00340.25WyCH 40 - 27.405 FM Mhz | https://cb27.ure.es/
  • Wed, 26 Jun 2019 03:01:00 +0000: URE-CB>APWW10,,TCPIP*,qAC,EIFEL-CB:>260301zRadio enlace LRCB | www.LaRadioCB.es
  • Wed, 26 Jun 2019 02:31:15 +0000: URE-CB>APWW10,,TCPIP*,qAC,EIFEL-CB:@033115h4023.45N/00340.25WyCH 40 - 27.405 FM Mhz | https://cb27.ure.es/
  • Wed, 26 Jun 2019 02:01:15 +0000: URE-CB>APWW10,,TCPIP*,qAC,EIFEL-CB:@030115h4023.45N/00340.25WyCH 40 - 27.405 FM Mhz | https://cb27.ure.es/
  • Wed, 26 Jun 2019 02:01:00 +0000: URE-CB>APWW10,,TCPIP*,qAC,EIFEL-CB:>260201zRadio enlace LRCB | www.LaRadioCB.es
  • Wed, 26 Jun 2019 01:31:14 +0000: URE-CB>APWW10,,TCPIP*,qAC,EIFEL-CB:@023114h4023.45N/00340.25WyCH 40 - 27.405 FM Mhz | https://cb27.ure.es/
  • Wed, 26 Jun 2019 01:01:14 +0000: URE-CB>APWW10,,TCPIP*,qAC,EIFEL-CB:@020114h4023.45N/00340.25WyCH 40 - 27.405 FM Mhz | https://cb27.ure.es/
  • Wed, 26 Jun 2019 01:01:00 +0000: URE-CB>APWW10,,TCPIP*,qAC,EIFEL-CB:>260101zRadio enlace LRCB | www.LaRadioCB.es
  • Wed, 26 Jun 2019 00:31:13 +0000: URE-CB>APWW10,,TCPIP*,qAC,EIFEL-CB:@013113h4023.45N/00340.25WyCH 40 - 27.405 FM Mhz | https://cb27.ure.es/
  • Wed, 26 Jun 2019 00:01:13 +0000: URE-CB>APWW10,,TCPIP*,qAC,EIFEL-CB:@010113h4023.45N/00340.25WyCH 40 - 27.405 FM Mhz | https://cb27.ure.es/
  • Wed, 26 Jun 2019 00:01:00 +0000: URE-CB>APWW10,,TCPIP*,qAC,EIFEL-CB:>260001zRadio enlace LRCB | www.LaRadioCB.es
  • Tue, 25 Jun 2019 23:48:45 +0000: URE-CB>APWW10,,TCPIP*,qAC,EIFEL-CB:@004845h4023.45N/00340.25WyCH 40 - 27.405 FM Mhz | https://cb27.ure.es/
  • Tue, 25 Jun 2019 23:18:44 +0000: URE-CB>APWW10,,TCPIP*,qAC,EIFEL-CB:@001844h4023.45N/00340.25WyCH 40 - 27.405 FM Mhz | https://cb27.ure.es/
  • Tue, 25 Jun 2019 23:01:00 +0000: URE-CB>APWW10,,TCPIP*,qAC,EIFEL-CB:>252301zRadio enlace LRCB | www.LaRadioCB.es
  • Tue, 25 Jun 2019 22:06:25 +0000: URE-CB>APWW10,,TCPIP*,qAC,EIFEL-CB:@230625h4023.45N/00340.25WyCH 40 - 27.405 FM Mhz | https://cb27.ure.es/
  • Tue, 25 Jun 2019 22:01:00 +0000: URE-CB>APWW10,,TCPIP*,qAC,EIFEL-CB:>252201zRadio enlace LRCB | www.LaRadioCB.es
  • Tue, 25 Jun 2019 21:36:24 +0000: URE-CB>APWW10,,TCPIP*,qAC,EIFEL-CB:@223624h4023.45N/00340.25WyCH 40 - 27.405 FM Mhz | https://cb27.ure.es/
  • Tue, 25 Jun 2019 21:06:24 +0000: URE-CB>APWW10,,TCPIP*,qAC,EIFEL-CB:@220624h4023.45N/00340.25WyCH 40 - 27.405 FM Mhz | https://cb27.ure.es/
  • Tue, 25 Jun 2019 21:01:00 +0000: URE-CB>APWW10,,TCPIP*,qAC,EIFEL-CB:>252101zRadio enlace LRCB | www.LaRadioCB.es
  • Tue, 25 Jun 2019 20:48:40 +0000: URE-CB>APWW10,,TCPIP*,qAC,EIFEL-CB:@214840h4023.45N/00340.25WyCH 40 - 27.405 FM Mhz | https://cb27.ure.es/
  • Tue, 25 Jun 2019 20:18:40 +0000: URE-CB>APWW10,,TCPIP*,qAC,EIFEL-CB:@211840h4023.45N/00340.25WyCH 40 - 27.405 FM Mhz | https://cb27.ure.es/
  • Tue, 25 Jun 2019 20:01:00 +0000: URE-CB>APWW10,,TCPIP*,qAC,EIFEL-CB:>252001zRadio enlace LRCB | www.LaRadioCB.es
  • Tue, 25 Jun 2019 19:48:40 +0000: URE-CB>APWW10,,TCPIP*,qAC,EIFEL-CB:@204840h4023.45N/00340.25WyCH 40 - 27.405 FM Mhz | https://cb27.ure.es/
  • Tue, 25 Jun 2019 19:18:40 +0000: URE-CB>APWW10,,TCPIP*,qAC,EIFEL-CB:@201840h4023.45N/00340.25WyCH 40 - 27.405 FM Mhz | https://cb27.ure.es/
  • Tue, 25 Jun 2019 19:01:00 +0000: URE-CB>APWW10,,TCPIP*,qAC,EIFEL-CB:>251901zRadio enlace LRCB | www.LaRadioCB.es
  • Tue, 25 Jun 2019 18:48:39 +0000: URE-CB>APWW10,,TCPIP*,qAC,EIFEL-CB:@194839h4023.45N/00340.25WyCH 40 - 27.405 FM Mhz | https://cb27.ure.es/
  • Tue, 25 Jun 2019 18:18:39 +0000: URE-CB>APWW10,,TCPIP*,qAC,EIFEL-CB:@191839h4023.45N/00340.25WyCH 40 - 27.405 FM Mhz | https://cb27.ure.es/
  • Tue, 25 Jun 2019 18:01:00 +0000: URE-CB>APWW10,,TCPIP*,qAC,EIFEL-CB:>251801zRadio enlace LRCB | www.LaRadioCB.es
  • Tue, 25 Jun 2019 17:48:39 +0000: URE-CB>APWW10,,TCPIP*,qAC,EIFEL-CB:@184839h4023.45N/00340.25WyCH 40 - 27.405 FM Mhz | https://cb27.ure.es/
  • Tue, 25 Jun 2019 17:18:38 +0000: URE-CB>APWW10,,TCPIP*,qAC,EIFEL-CB:@181838h4023.45N/00340.25WyCH 40 - 27.405 FM Mhz | https://cb27.ure.es/
  • Tue, 25 Jun 2019 17:01:00 +0000: URE-CB>APWW10,,TCPIP*,qAC,EIFEL-CB:>251701zRadio enlace LRCB | www.LaRadioCB.es
  • Tue, 25 Jun 2019 16:48:38 +0000: URE-CB>APWW10,,TCPIP*,qAC,EIFEL-CB:@174838h4023.45N/00340.25WyCH 40 - 27.405 FM Mhz | https://cb27.ure.es/
  • Tue, 25 Jun 2019 16:18:38 +0000: URE-CB>APWW10,,TCPIP*,qAC,EIFEL-CB:@171838h4023.45N/00340.25WyCH 40 - 27.405 FM Mhz | https://cb27.ure.es/
  • Tue, 25 Jun 2019 16:01:00 +0000: URE-CB>APWW10,,TCPIP*,qAC,EIFEL-CB:>251601zRadio enlace LRCB | www.LaRadioCB.es
  • Tue, 25 Jun 2019 15:48:37 +0000: URE-CB>APWW10,,TCPIP*,qAC,EIFEL-CB:@164837h4023.45N/00340.25WyCH 40 - 27.405 FM Mhz | https://cb27.ure.es/
  • Tue, 25 Jun 2019 15:18:36 +0000: URE-CB>APWW10,,TCPIP*,qAC,EIFEL-CB:@161836h4023.45N/00340.25WyCH 40 - 27.405 FM Mhz | https://cb27.ure.es/
  • Tue, 25 Jun 2019 15:01:00 +0000: URE-CB>APWW10,,TCPIP*,qAC,EIFEL-CB:>251501zRadio enlace LRCB | www.LaRadioCB.es
  • Tue, 25 Jun 2019 14:48:35 +0000: URE-CB>APWW10,,TCPIP*,qAC,EIFEL-CB:@154835h4023.45N/00340.25WyCH 40 - 27.405 FM Mhz | https://cb27.ure.es/
  • Tue, 25 Jun 2019 14:18:34 +0000: URE-CB>APWW10,,TCPIP*,qAC,EIFEL-CB:@151834h4023.45N/00340.25WyCH 40 - 27.405 FM Mhz | https://cb27.ure.es/
  • Tue, 25 Jun 2019 14:01:00 +0000: URE-CB>APWW10,,TCPIP*,qAC,EIFEL-CB:>251401zRadio enlace LRCB | www.LaRadioCB.es
  • Tue, 25 Jun 2019 13:48:34 +0000: URE-CB>APWW10,,TCPIP*,qAC,EIFEL-CB:@144834h4023.45N/00340.25WyCH 40 - 27.405 FM Mhz | https://cb27.ure.es/
  • Tue, 25 Jun 2019 13:18:34 +0000: URE-CB>APWW10,,TCPIP*,qAC,EIFEL-CB:@141834h4023.45N/00340.25WyCH 40 - 27.405 FM Mhz | https://cb27.ure.es/
  • Tue, 25 Jun 2019 13:01:00 +0000: URE-CB>APWW10,,TCPIP*,qAC,EIFEL-CB:>251301zRadio enlace LRCB | www.LaRadioCB.es
  • Tue, 25 Jun 2019 12:48:34 +0000: URE-CB>APWW10,,TCPIP*,qAC,EIFEL-CB:@134834h4023.45N/00340.25WyCH 40 - 27.405 FM Mhz | https://cb27.ure.es/
  • Tue, 25 Jun 2019 12:18:33 +0000: URE-CB>APWW10,,TCPIP*,qAC,EIFEL-CB:@131833h4023.45N/00340.25WyCH 40 - 27.405 FM Mhz | https://cb27.ure.es/
  • Tue, 25 Jun 2019 11:16:57 +0000: URE-CB>APWW10,,TCPIP*,qAC,EIFEL-CB:@121657h4023.45N/00340.25WyCH 40 - 27.405 FM Mhz | https://cb27.ure.es/
  • Tue, 25 Jun 2019 11:00:00 +0000: URE-CB>APWW10,,TCPIP*,qAC,EIFEL-CB:>251100zRadio enlace LRCB | www.LaRadioCB.es
  • Tue, 25 Jun 2019 10:46:56 +0000: URE-CB>APWW10,,TCPIP*,qAC,EIFEL-CB:@114656h4023.45N/00340.25WyCH 40 - 27.405 FM Mhz | https://cb27.ure.es/
  • Tue, 25 Jun 2019 10:00:00 +0000: URE-CB>APWW10,,TCPIP*,qAC,EIFEL-CB:>251000zRadio enlace LRCB | www.LaRadioCB.es
  • Tue, 25 Jun 2019 09:46:55 +0000: URE-CB>APWW10,,TCPIP*,qAC,EIFEL-CB:@104655h4023.45N/00340.25WyCH 40 - 27.405 FM Mhz | https://cb27.ure.es/
  • Tue, 25 Jun 2019 09:16:55 +0000: URE-CB>APWW10,,TCPIP*,qAC,EIFEL-CB:@101655h4023.45N/00340.25WyCH 40 - 27.405 FM Mhz | https://cb27.ure.es/
  • Tue, 25 Jun 2019 09:00:00 +0000: URE-CB>APWW10,,TCPIP*,qAC,EIFEL-CB:>250900zRadio enlace LRCB | www.LaRadioCB.es
  • Tue, 25 Jun 2019 08:46:55 +0000: URE-CB>APWW10,,TCPIP*,qAC,EIFEL-CB:@094655h4023.45N/00340.25WyCH 40 - 27.405 FM Mhz | https://cb27.ure.es/
  • Tue, 25 Jun 2019 08:16:53 +0000: URE-CB>APWW10,,TCPIP*,qAC,EIFEL-CB:@091653h4023.45N/00340.25WyCH 40 - 27.405 FM Mhz | https://cb27.ure.es/
  • Tue, 25 Jun 2019 08:00:00 +0000: URE-CB>APWW10,,TCPIP*,qAC,EIFEL-CB:>250800zRadio enlace LRCB | www.LaRadioCB.es
  • Tue, 25 Jun 2019 07:46:52 +0000: URE-CB>APWW10,,TCPIP*,qAC,EIFEL-CB:@084652h4023.45N/00340.25WyCH 40 - 27.405 FM Mhz | https://cb27.ure.es/
  • Tue, 25 Jun 2019 07:16:52 +0000: URE-CB>APWW10,,TCPIP*,qAC,EIFEL-CB:@081652h4023.45N/00340.25WyCH 40 - 27.405 FM Mhz | https://cb27.ure.es/
  • Tue, 25 Jun 2019 06:46:52 +0000: URE-CB>APWW10,,TCPIP*,qAC,EIFEL-CB:@074652h4023.45N/00340.25WyCH 40 - 27.405 FM Mhz | https://cb27.ure.es/
  • Tue, 25 Jun 2019 06:16:52 +0000: URE-CB>APWW10,,TCPIP*,qAC,EIFEL-CB:@071652h4023.45N/00340.25WyCH 40 - 27.405 FM Mhz | https://cb27.ure.es/
  • Tue, 25 Jun 2019 06:00:00 +0000: URE-CB>APWW10,,TCPIP*,qAC,EIFEL-CB:>250600zRadio enlace LRCB | www.LaRadioCB.es
  • Tue, 25 Jun 2019 05:46:52 +0000: URE-CB>APWW10,,TCPIP*,qAC,EIFEL-CB:@064652h4023.45N/00340.25WyCH 40 - 27.405 FM Mhz | https://cb27.ure.es/
  • Tue, 25 Jun 2019 05:16:52 +0000: URE-CB>APWW10,,TCPIP*,qAC,EIFEL-CB:@061652h4023.45N/00340.25WyCH 40 - 27.405 FM Mhz | https://cb27.ure.es/
  • Tue, 25 Jun 2019 05:00:00 +0000: URE-CB>APWW10,,TCPIP*,qAC,EIFEL-CB:>250500zRadio enlace LRCB | www.LaRadioCB.es
  • Tue, 25 Jun 2019 04:46:51 +0000: URE-CB>APWW10,,TCPIP*,qAC,EIFEL-CB:@054651h4023.45N/00340.25WyCH 40 - 27.405 FM Mhz | https://cb27.ure.es/
  • Tue, 25 Jun 2019 04:44:17 +0000: URE-CB>APWW10,,TCPIP*,qAC,EIFEL-CB:@054417h4023.45N/00340.25WyCH 40 - 27.405 FM Mhz | https://cb27.ure.es/
  • Tue, 25 Jun 2019 04:14:16 +0000: URE-CB>APWW10,,TCPIP*,qAC,EIFEL-CB:@051416h4023.45N/00340.25WyCH 40 - 27.405 FM Mhz | https://cb27.ure.es/
  • Tue, 25 Jun 2019 04:00:00 +0000: URE-CB>APWW10,,TCPIP*,qAC,EIFEL-CB:>250400zRadio enlace LRCB | www.LaRadioCB.es
  • Tue, 25 Jun 2019 03:44:15 +0000: URE-CB>APWW10,,TCPIP*,qAC,EIFEL-CB:@044415h4023.45N/00340.25WyCH 40 - 27.405 FM Mhz | https://cb27.ure.es/
  • Tue, 25 Jun 2019 03:14:15 +0000: URE-CB>APWW10,,TCPIP*,qAC,EIFEL-CB:@041415h4023.45N/00340.25WyCH 40 - 27.405 FM Mhz | https://cb27.ure.es/
  • Tue, 25 Jun 2019 02:59:00 +0000: URE-CB>APWW10,,TCPIP*,qAC,EIFEL-CB:>250259zRadio enlace LRCB | www.LaRadioCB.es
  • Tue, 25 Jun 2019 02:44:15 +0000: URE-CB>APWW10,,TCPIP*,qAC,EIFEL-CB:@034415h4023.45N/00340.25WyCH 40 - 27.405 FM Mhz | https://cb27.ure.es/
  • Tue, 25 Jun 2019 02:14:15 +0000: URE-CB>APWW10,,TCPIP*,qAC,EIFEL-CB:@031415h4023.45N/00340.25WyCH 40 - 27.405 FM Mhz | https://cb27.ure.es/
  • Tue, 25 Jun 2019 01:59:00 +0000: URE-CB>APWW10,,TCPIP*,qAC,EIFEL-CB:>250159zRadio enlace LRCB | www.LaRadioCB.es
  • Tue, 25 Jun 2019 01:44:14 +0000: URE-CB>APWW10,,TCPIP*,qAC,EIFEL-CB:@024414h4023.45N/00340.25WyCH 40 - 27.405 FM Mhz | https://cb27.ure.es/
  • Tue, 25 Jun 2019 01:14:14 +0000: URE-CB>APWW10,,TCPIP*,qAC,EIFEL-CB:@021414h4023.45N/00340.25WyCH 40 - 27.405 FM Mhz | https://cb27.ure.es/
  • Tue, 25 Jun 2019 00:44:14 +0000: URE-CB>APWW10,,TCPIP*,qAC,EIFEL-CB:@014414h4023.45N/00340.25WyCH 40 - 27.405 FM Mhz | https://cb27.ure.es/
  • Tue, 25 Jun 2019 00:14:14 +0000: URE-CB>APWW10,,TCPIP*,qAC,EIFEL-CB:@011414h4023.45N/00340.25WyCH 40 - 27.405 FM Mhz | https://cb27.ure.es/
  • Mon, 24 Jun 2019 23:59:00 +0000: URE-CB>APWW10,,TCPIP*,qAC,EIFEL-CB:>242359zRadio enlace LRCB | www.LaRadioCB.es
  • Mon, 24 Jun 2019 23:44:13 +0000: URE-CB>APWW10,,TCPIP*,qAC,EIFEL-CB:@004413h4023.45N/00340.25WyCH 40 - 27.405 FM Mhz | https://cb27.ure.es/
  • Mon, 24 Jun 2019 23:25:17 +0000: URE-CB>APWW10,,TCPIP*,qAC,EIFEL-CB:@002517h4023.45N/00340.25WyCH 40 - 27.405 FM Mhz | https://cb27.ure.es/
  • Mon, 24 Jun 2019 22:59:00 +0000: URE-CB>APWW10,,TCPIP*,qAC,EIFEL-CB:>242259zRadio enlace LRCB | www.LaRadioCB.es
  • Mon, 24 Jun 2019 22:14:17 +0000: URE-CB>APWW10,,TCPIP*,qAC,EIFEL-CB:@231417h4023.45N/00340.25WyCH 40 - 27.405 FM Mhz | https://cb27.ure.es/
  • Mon, 24 Jun 2019 21:59:00 +0000: URE-CB>APWW10,,TCPIP*,qAC,EIFEL-CB:>242159zRadio enlace LRCB | www.LaRadioCB.es
  • Mon, 24 Jun 2019 21:44:16 +0000: URE-CB>APWW10,,TCPIP*,qAC,EIFEL-CB:@224416h4023.45N/00340.25WyCH 40 - 27.405 FM Mhz | https://cb27.ure.es/
  • Mon, 24 Jun 2019 21:14:16 +0000: URE-CB>APWW10,,TCPIP*,qAC,EIFEL-CB:@221416h4023.45N/00340.25WyCH 40 - 27.405 FM Mhz | https://cb27.ure.es/
  • Mon, 24 Jun 2019 20:59:00 +0000: URE-CB>APWW10,,TCPIP*,qAC,EIFEL-CB:>242059zRadio enlace LRCB | www.LaRadioCB.es
  • Mon, 24 Jun 2019 20:36:23 +0000: URE-CB>APWW10,,TCPIP*,qAC,EIFEL-CB:@213623h4023.45N/00340.25WyCH 40 - 27.405 FM Mhz | https://cb27.ure.es/
  • Mon, 24 Jun 2019 20:06:23 +0000: URE-CB>APWW10,,TCPIP*,qAC,EIFEL-CB:@210623h4023.45N/00340.25WyCH 40 - 27.405 FM Mhz | https://cb27.ure.es/
  • Mon, 24 Jun 2019 19:58:00 +0000: URE-CB>APWW10,,TCPIP*,qAC,EIFEL-CB:>241958zRadio enlace LRCB | www.LaRadioCB.es
  • Mon, 24 Jun 2019 19:36:22 +0000: URE-CB>APWW10,,TCPIP*,qAC,EIFEL-CB:@203622h4023.45N/00340.25WyCH 40 - 27.405 FM Mhz | https://cb27.ure.es/
  • Mon, 24 Jun 2019 19:06:21 +0000: URE-CB>APWW10,,TCPIP*,qAC,EIFEL-CB:@200621h4023.45N/00340.25WyCH 40 - 27.405 FM Mhz | https://cb27.ure.es/
  • Mon, 24 Jun 2019 18:58:00 +0000: URE-CB>APWW10,,TCPIP*,qAC,EIFEL-CB:>241858zRadio enlace LRCB | www.LaRadioCB.es
  • Mon, 24 Jun 2019 18:36:21 +0000: URE-CB>APWW10,,TCPIP*,qAC,EIFEL-CB:@193621h4023.45N/00340.25WyCH 40 - 27.405 FM Mhz | https://cb27.ure.es/